Time;durP1;ratioP1;P1;durP2;ratioP2;P2;SDS_P1;SDS_P2;PMS_P1;PMS_P2;Temp;Humidity;BMP_temperature;BMP_pressure;BME280_temperature;BME280_humidity;BME280_pressure;Samples;Min_cycle;Max_cycle;Signal;HPM_P1;HPM_P2
2022/11/22 00:00:11;;;;;;;6.17;2.10;;;;;;;5.43;100.00;98469.13;684095;28;1413;-69
2022/11/22 00:00:32;;;;;;;6.03;1.93;;;;;;;5.47;100.00;98472.53;683992;28;1446;-69
2022/11/22 00:00:52;;;;;;;6.07;1.98;;;;;;;5.55;100.00;98472.34;684484;28;4566;-68
2022/11/22 00:01:12;;;;;;;5.87;1.87;;;;;;;5.53;100.00;98468.97;683982;28;1303;-67
2022/11/22 00:01:33;;;;;;;5.43;1.95;;;;;;;5.53;100.00;98476.72;684588;28;1036;-68
2022/11/22 00:01:53;;;;;;;5.80;2.50;;;;;;;5.50;100.00;98477.63;684013;28;1343;-67
2022/11/22 00:02:14;;;;;;;5.68;2.15;;;;;;;5.50;100.00;98474.19;683734;28;1379;-66
2022/11/22 00:02:34;;;;;;;5.17;1.90;;;;;;;5.50;100.00;98479.34;683858;28;2427;-67
2022/11/22 00:02:54;;;;;;;5.43;2.08;;;;;;;5.53;100.00;98479.31;684021;28;1405;-68
2022/11/22 00:03:15;;;;;;;6.63;1.97;;;;;;;5.49;100.00;98470.75;684343;28;1358;-67
2022/11/22 00:03:35;;;;;;;6.75;2.38;;;;;;;5.48;100.00;98465.59;684173;28;1517;-69
2022/11/22 00:03:55;;;;;;;5.87;2.20;;;;;;;5.46;100.00;98470.81;684705;28;4283;-68
2022/11/22 00:04:16;;;;;;;6.63;2.27;;;;;;;5.57;100.00;98474.03;684897;28;1278;-68
2022/11/22 00:04:36;;;;;;;6.15;2.05;;;;;;;5.63;100.00;98471.34;681928;28;2265;-66
2022/11/22 00:04:56;;;;;;;4.83;2.00;;;;;;;5.58;100.00;98477.47;684899;28;1372;-68
2022/11/22 00:05:17;;;;;;;5.00;1.90;;;;;;;5.56;100.00;98471.47;684125;28;2382;-69
2022/11/22 00:05:37;;;;;;;4.63;1.88;;;;;;;5.63;100.00;98478.25;684461;28;1486;-67
2022/11/22 00:05:58;;;;;;;6.38;2.25;;;;;;;5.66;100.00;98472.16;684911;28;1406;-67
2022/11/22 00:06:18;;;;;;;7.00;2.37;;;;;;;5.71;100.00;98471.16;684756;28;1306;-68
2022/11/22 00:06:38;;;;;;;6.53;2.37;;;;;;;5.76;100.00;98471.94;684109;28;4730;-67
2022/11/22 00:06:59;;;;;;;4.82;2.20;;;;;;;5.71;100.00;98471.16;684912;28;1323;-68
2022/11/22 00:07:19;;;;;;;5.47;2.07;;;;;;;5.68;100.00;98467.81;686299;28;1485;-68
2022/11/22 00:07:40;;;;;;;6.75;2.20;;;;;;;5.67;100.00;98466.94;685129;28;1607;-67
2022/11/22 00:08:01;;;;;;;5.80;1.90;;;;;;;5.66;100.00;98470.41;685343;28;2635;-68
2022/11/22 00:08:22;;;;;;;5.60;1.77;;;;;;;5.73;100.00;98468.53;685793;28;1169;-68
2022/11/22 00:08:43;;;;;;;5.75;1.90;;;;;;;5.65;100.00;98465.25;686479;28;1370;-68
2022/11/22 00:09:03;;;;;;;6.63;2.23;;;;;;;5.63;100.00;98470.47;684500;28;1366;-68
2022/11/22 00:09:23;;;;;;;4.72;1.90;;;;;;;5.65;100.00;98465.25;684560;28;1286;-68
2022/11/22 00:09:44;;;;;;;6.03;1.80;;;;;;;5.63;100.00;98462.69;684092;28;4471;-67
2022/11/22 00:10:06;;;;;;;7.55;2.15;;;;;;;5.62;100.00;98460.97;684771;28;1294;-67
2022/11/22 00:10:27;;;;;;;7.70;2.10;;;;;;;5.60;100.00;98467.94;684651;28;1322;-68
2022/11/22 00:10:50;;;;;;;4.63;1.88;;;;;;;5.58;100.00;98469.69;684063;28;2949;-68
2022/11/22 00:11:11;;;;;;;5.70;2.10;;;;;;;5.55;100.00;98469.75;684355;28;1358;-68
2022/11/22 00:11:31;;;;;;;6.53;2.00;;;;;;;5.50;100.00;98467.28;684715;28;1291;-68
2022/11/22 00:11:51;;;;;;;5.47;1.93;;;;;;;5.52;100.00;98464.66;684183;28;1337;-68
2022/11/22 00:12:12;;;;;;;6.38;2.05;;;;;;;5.52;100.00;98459.47;684958;28;1319;-68
2022/11/22 00:12:32;;;;;;;5.60;2.10;;;;;;;5.59;100.00;98461.91;687585;28;1341;-68
2022/11/22 00:12:53;;;;;;;6.00;2.17;;;;;;;5.57;100.00;98458.50;686421;28;4656;-67
2022/11/22 00:13:13;;;;;;;5.70;2.00;;;;;;;5.61;100.00;98469.66;686843;28;2360;-67
2022/11/22 00:13:33;;;;;;;5.25;2.00;;;;;;;5.59;100.00;98461.03;687047;28;1019;-68
2022/11/22 00:13:54;;;;;;;5.80;2.37;;;;;;;5.58;100.00;98472.28;687212;28;1448;-67
2022/11/22 00:14:14;;;;;;;5.17;2.40;;;;;;;5.55;100.00;98465.47;687228;28;1334;-67
2022/11/22 00:14:34;;;;;;;6.03;2.47;;;;;;;5.57;100.00;98462.84;684881;28;908;-67
2022/11/22 00:14:55;;;;;;;5.83;2.47;;;;;;;5.52;100.00;98469.84;685213;28;896;-66
2022/11/22 00:15:15;;;;;;;7.00;2.38;;;;;;;5.48;100.00;98463.84;684766;28;1328;-68
2022/11/22 00:15:35;;;;;;;6.10;2.40;;;;;;;5.48;100.00;98460.41;684742;28;1070;-68
2022/11/22 00:16:01;;;;;;;5.43;2.25;;;;;;;5.44;100.00;98463.06;683503;28;4323;-67
2022/11/22 00:16:21;;;;;;;6.68;2.10;;;;;;;5.42;100.00;98470.00;683987;28;1350;-68
2022/11/22 00:16:41;;;;;;;5.93;2.10;;;;;;;5.43;100.00;98463.94;683453;28;1975;-67
2022/11/22 00:17:01;;;;;;;5.73;1.87;;;;;;;5.45;100.00;98463.91;684315;28;1350;-68
2022/11/22 00:17:22;;;;;;;6.63;2.10;;;;;;;5.48;100.00;98465.59;684756;28;1188;-68
2022/11/22 00:17:42;;;;;;;6.43;2.10;;;;;;;5.54;100.00;98460.28;685122;28;1350;-67
2022/11/22 00:18:03;;;;;;;4.80;1.90;;;;;;;5.55;100.00;98459.41;684281;28;1342;-67
2022/11/22 00:18:23;;;;;;;7.03;2.20;;;;;;;5.52;100.00;98460.31;684111;28;1180;-67
2022/11/22 00:18:43;;;;;;;7.45;2.30;;;;;;;5.54;100.00;98448.19;683591;28;4301;-63
2022/11/22 00:19:04;;;;;;;5.70;2.30;;;;;;;5.53;100.00;98450.81;683318;28;1403;-67
2022/11/22 00:19:24;;;;;;;5.67;2.23;;;;;;;5.49;100.00;98449.16;684732;28;1383;-66
2022/11/22 00:19:44;;;;;;;5.20;2.15;;;;;;;5.51;100.00;98455.16;684734;28;1301;-67
2022/11/22 00:20:07;;;;;;;5.23;2.00;;;;;;;5.59;100.00;98455.84;684499;28;1133;-66
2022/11/22 00:20:28;;;;;;;6.63;2.20;;;;;;;5.66;100.00;98457.44;685247;28;1125;-68
2022/11/22 00:20:48;;;;;;;6.32;2.45;;;;;;;5.75;100.00;98457.25;685096;28;1343;-67
2022/11/22 00:21:09;;;;;;;5.67;2.43;;;;;;;5.68;100.00;98455.69;684148;28;2380;-67
2022/11/22 00:21:29;;;;;;;5.18;2.10;;;;;;;5.62;100.00;98455.78;684882;28;1571;-68
2022/11/22 00:21:49;;;;;;;6.00;2.30;;;;;;;5.57;100.00;98452.47;684534;28;4440;-68
2022/11/22 00:22:10;;;;;;;5.97;2.13;;;;;;;5.58;100.00;98454.16;684575;28;966;-67
2022/11/22 00:22:31;;;;;;;6.33;2.27;;;;;;;5.55;100.00;98449.03;685211;28;1298;-68
2022/11/22 00:22:51;;;;;;;6.70;2.15;;;;;;;5.59;100.00;98450.69;685121;28;1238;-67
2022/11/22 00:23:12;;;;;;;7.88;2.30;;;;;;;5.55;100.00;98451.63;684432;28;3900;-68
2022/11/22 00:23:32;;;;;;;6.73;2.00;;;;;;;5.52;100.00;98460.31;684982;28;1374;-67
2022/11/22 00:23:56;;;;;;;6.10;2.10;;;;;;;5.46;100.00;98450.91;683765;28;2470;-67
2022/11/22 00:24:16;;;;;;;5.75;2.20;;;;;;;5.50;100.00;98448.25;684083;28;1189;-67
2022/11/22 00:24:37;;;;;;;6.17;2.37;;;;;;;5.57;100.00;98447.28;685077;28;1355;-67
2022/11/22 00:24:57;;;;;;;6.53;2.30;;;;;;;5.53;100.00;98450.81;684247;28;4475;-67
2022/11/22 00:25:18;;;;;;;5.17;2.30;;;;;;;5.56;100.00;98445.56;684595;28;1338;-68
2022/11/22 00:25:38;;;;;;;5.37;2.30;;;;;;;5.60;100.00;98452.41;685067;28;1544;-67
2022/11/22 00:25:58;;;;;;;6.00;2.10;;;;;;;5.58;100.00;98443.78;685079;28;1631;-66
2022/11/22 00:26:19;;;;;;;6.97;2.67;;;;;;;5.52;100.00;98441.31;684537;28;1611;-66
2022/11/22 00:26:40;;;;;;;6.28;2.60;;;;;;;5.50;100.00;98448.25;683924;28;2382;-67
2022/11/22 00:27:00;;;;;;;5.25;1.90;;;;;;;5.61;100.00;98443.75;684405;28;1302;-67
2022/11/22 00:27:21;;;;;;;5.68;1.98;;;;;;;5.69;100.00;98444.44;683544;28;1314;-68
2022/11/22 00:27:41;;;;;;;5.73;2.00;;;;;;;5.63;100.00;98442.84;682309;28;4542;-68
2022/11/22 00:28:02;;;;;;;5.68;2.10;;;;;;;5.58;100.00;98446.38;682980;28;1464;-67
2022/11/22 00:28:22;;;;;;;5.63;2.23;;;;;;;5.57;100.00;98447.28;681801;28;1247;-67
2022/11/22 00:28:42;;;;;;;4.82;2.00;;;;;;;5.56;100.00;98445.56;682377;28;1293;-66
2022/11/22 00:29:03;;;;;;;7.00;2.17;;;;;;;5.52;100.00;98444.75;684945;28;1386;-66
2022/11/22 00:29:23;;;;;;;6.67;2.20;;;;;;;5.50;100.00;98445.66;683594;28;2486;-67
2022/11/22 00:29:43;;;;;;;7.60;2.10;;;;;;;5.46;100.00;98439.72;684188;28;1428;-67
2022/11/22 00:30:05;;;;;;;5.77;2.10;;;;;;;5.48;100.00;98437.09;684878;28;1307;-67
2022/11/22 00:30:25;;;;;;;5.38;2.25;;;;;;;5.44;100.00;98441.47;684373;28;1210;-66
2022/11/22 00:30:45;;;;;;;6.20;2.30;;;;;;;5.50;100.00;98441.34;684491;28;4473;-67
2022/11/22 00:31:06;;;;;;;5.60;2.20;;;;;;;5.48;100.00;98442.28;685002;28;1335;-67
2022/11/22 00:31:26;;;;;;;6.30;2.10;;;;;;;5.46;100.00;98444.91;684624;28;1254;-67
2022/11/22 00:31:46;;;;;;;7.30;2.10;;;;;;;5.48;100.00;98455.22;685228;28;1358;-67
2022/11/22 00:32:07;;;;;;;6.50;2.13;;;;;;;5.45;100.00;98438.88;683916;28;2735;-67
2022/11/22 00:32:27;;;;;;;6.25;2.17;;;;;;;5.43;100.00;98438.03;684843;28;1306;-66
2022/11/22 00:32:47;;;;;;;5.10;2.07;;;;;;;5.42;100.00;98449.28;684788;28;1521;-67
2022/11/22 00:33:08;;;;;;;5.65;2.15;;;;;;;5.41;100.00;98444.13;684575;28;1306;-67
2022/11/22 00:33:28;;;;;;;5.50;1.90;;;;;;;5.41;100.00;98439.81;684704;28;1415;-66
2022/11/22 00:33:49;;;;;;;6.50;2.10;;;;;;;5.41;100.00;98450.19;684665;28;4273;-69
2022/11/22 00:34:09;;;;;;;5.70;1.83;;;;;;;5.43;100.00;98439.78;684569;28;1287;-67
2022/11/22 00:34:29;;;;;;;6.23;2.10;;;;;;;5.52;100.00;98444.75;687062;28;2440;-68
2022/11/22 00:34:49;;;;;;;6.57;2.27;;;;;;;5.61;100.00;98446.34;682967;28;1685;-68
2022/11/22 00:35:10;;;;;;;4.47;1.97;;;;;;;5.66;100.00;98447.06;684598;28;1411;-67
2022/11/22 00:35:30;;;;;;;4.57;1.98;;;;;;;5.59;100.00;98450.69;684863;28;1355;-68
2022/11/22 00:35:51;;;;;;;4.70;2.07;;;;;;;5.66;100.00;98447.06;684731;28;1370;-67
2022/11/22 00:36:11;;;;;;;5.53;2.10;;;;;;;5.66;100.00;98439.28;681644;28;1349;-66
2022/11/22 00:36:31;;;;;;;6.33;2.20;;;;;;;5.66;100.00;98436.69;681805;28;1299;-66
2022/11/22 00:36:52;;;;;;;5.40;2.30;;;;;;;5.62;100.00;98430.75;683633;28;4323;-67
2022/11/22 00:37:12;;;;;;;7.05;2.30;;;;;;;5.60;100.00;98435.09;684566;28;1330;-67
2022/11/22 00:37:32;;;;;;;7.17;2.03;;;;;;;5.60;100.00;98442.03;684495;28;2803;-67
2022/11/22 00:37:53;;;;;;;5.32;1.92;;;;;;;5.66;100.00;98441.88;684863;28;1184;-67
2022/11/22 00:38:13;;;;;;;6.57;2.30;;;;;;;5.67;100.00;98435.81;684682;28;1291;-68
2022/11/22 00:38:33;;;;;;;6.93;2.30;;;;;;;5.65;100.00;98444.50;684571;28;1366;-67
2022/11/22 00:38:54;;;;;;;8.43;2.40;;;;;;;5.59;100.00;98441.19;684640;28;1317;-67
2022/11/22 00:39:14;;;;;;;8.00;2.50;;;;;;;5.55;100.00;98443.84;684920;28;1327;-66
2022/11/22 00:39:34;;;;;;;6.70;2.20;;;;;;;5.53;100.00;98443.03;684736;28;1401;-68
2022/11/22 00:39:55;;;;;;;7.47;2.30;;;;;;;5.50;100.00;98454.31;684170;28;4305;-67
2022/11/22 00:40:15;;;;;;;5.57;2.10;;;;;;;5.45;100.00;98454.41;684685;28;1409;-67
2022/11/22 00:40:38;;;;;;;5.50;2.30;;;;;;;5.42;100.00;98457.03;685200;28;1343;-66
2022/11/22 00:40:59;;;;;;;5.15;2.10;;;;;;;5.42;100.00;98449.28;684490;28;1473;-66
2022/11/22 00:41:19;;;;;;;6.30;2.13;;;;;;;5.42;100.00;98449.28;685079;28;1611;-66
2022/11/22 00:41:39;;;;;;;6.10;2.40;;;;;;;5.52;100.00;98449.09;684893;28;1600;-68
2022/11/22 00:42:00;;;;;;;7.37;2.37;;;;;;;5.55;100.00;98454.22;684906;28;5027;-65
2022/11/22 00:42:20;;;;;;;6.35;2.20;;;;;;;5.62;100.00;98455.78;684433;28;1288;-65
2022/11/22 00:42:40;;;;;;;4.97;2.10;;;;;;;5.56;100.00;98451.59;683403;28;4304;-67
2022/11/22 00:43:01;;;;;;;6.80;2.25;;;;;;;5.52;100.00;98454.28;683826;28;1818;-66
2022/11/22 00:43:21;;;;;;;7.27;2.33;;;;;;;5.53;100.00;98456.00;684882;28;1302;-66
2022/11/22 00:43:41;;;;;;;6.07;2.20;;;;;;;5.55;100.00;98455.09;684801;28;1579;-67
2022/11/22 00:44:02;;;;;;;5.57;2.17;;;;;;;5.53;100.00;98453.41;684263;28;1405;-66
2022/11/22 00:44:22;;;;;;;5.67;2.50;;;;;;;5.49;100.00;98457.78;684444;28;1325;-66
2022/11/22 00:44:42;;;;;;;4.83;2.30;;;;;;;5.42;100.00;98456.19;684962;28;1408;-66
2022/11/22 00:45:03;;;;;;;4.90;2.20;;;;;;;5.40;100.00;98456.22;684463;28;1428;-67
2022/11/22 00:45:23;;;;;;;6.05;2.22;;;;;;;5.39;100.00;98458.84;683813;28;2449;-66
2022/11/22 00:45:44;;;;;;;5.93;2.27;;;;;;;5.36;100.00;98459.75;684650;28;4653;-67
2022/11/22 00:46:04;;;;;;;6.40;2.37;;;;;;;5.35;100.00;98463.22;684743;28;1011;-66
2022/11/22 00:46:24;;;;;;;5.83;2.30;;;;;;;5.34;100.00;98456.34;684122;28;1307;-66
2022/11/22 00:46:45;;;;;;;6.30;2.20;;;;;;;5.37;100.00;98450.25;684616;28;1323;-66
2022/11/22 00:47:05;;;;;;;6.47;2.22;;;;;;;5.36;100.00;98448.53;684380;28;1394;-66
2022/11/22 00:47:25;;;;;;;6.13;2.20;;;;;;;5.36;100.00;98446.81;684586;28;1132;-66
2022/11/22 00:47:46;;;;;;;6.55;2.55;;;;;;;5.39;100.00;98454.53;684694;28;1307;-67
2022/11/22 00:48:06;;;;;;;6.43;2.53;;;;;;;5.41;100.00;98454.47;683682;28;2608;-67
2022/11/22 00:48:27;;;;;;;6.73;2.70;;;;;;;5.44;100.00;98449.25;684565;28;1206;-63
2022/11/22 00:48:47;;;;;;;4.85;2.50;;;;;;;5.43;100.00;98450.16;684210;28;4388;-64
2022/11/22 00:49:07;;;;;;;5.63;2.50;;;;;;;5.39;100.00;98454.53;684862;28;1714;-66
2022/11/22 00:49:30;;;;;;;8.35;3.00;;;;;;;5.38;100.00;98447.63;684797;28;1386;-66
2022/11/22 00:49:50;;;;;;;7.15;3.05;;;;;;;5.42;100.00;98449.28;684798;28;1204;-67
2022/11/22 00:50:11;;;;;;;7.23;2.63;;;;;;;5.52;100.00;98446.50;684533;28;1359;-67
2022/11/22 00:50:31;;;;;;;5.53;2.37;;;;;;;5.58;100.00;98443.78;684726;28;2446;-67
2022/11/22 00:50:51;;;;;;;7.07;2.70;;;;;;;5.61;100.00;98438.56;683552;28;1311;-66
2022/11/22 00:51:12;;;;;;;7.13;2.70;;;;;;;5.51;100.00;98450.84;683719;28;1375;-66
2022/11/22 00:51:32;;;;;;;7.88;2.50;;;;;;;5.41;100.00;98444.13;684362;28;1477;-65
2022/11/22 00:51:53;;;;;;;7.93;2.50;;;;;;;5.42;100.00;98446.69;684611;28;4584;-67
2022/11/22 00:52:13;;;;;;;6.95;2.70;;;;;;;5.44;100.00;98444.06;684522;28;1362;-67
2022/11/22 00:52:34;;;;;;;6.83;2.60;;;;;;;5.48;100.00;98437.94;684769;28;1358;-67
2022/11/22 00:52:54;;;;;;;4.55;2.30;;;;;;;5.43;100.00;98437.19;684713;28;1342;-67
2022/11/22 00:53:14;;;;;;;4.93;2.43;;;;;;;5.50;100.00;98437.88;683230;28;2688;-66
2022/11/22 00:53:35;;;;;;;6.18;2.50;;;;;;;5.43;100.00;98442.38;683052;28;1456;-66
2022/11/22 00:53:55;;;;;;;6.90;2.57;;;;;;;5.50;100.00;98443.06;684945;28;1496;-66
2022/11/22 00:54:15;;;;;;;7.07;2.70;;;;;;;5.50;100.00;98436.19;684606;28;1374;-67
2022/11/22 00:54:36;;;;;;;6.05;2.30;;;;;;;5.48;100.00;98444.84;687101;28;1338;-66
2022/11/22 00:54:56;;;;;;;6.17;2.37;;;;;;;5.42;100.00;98438.91;687039;28;4860;-66
2022/11/22 00:55:16;;;;;;;7.43;2.60;;;;;;;5.38;100.00;98445.03;687148;28;1342;-66
2022/11/22 00:55:37;;;;;;;8.47;2.40;;;;;;;5.39;100.00;98440.72;684655;28;1567;-66
2022/11/22 00:55:57;;;;;;;6.60;2.40;;;;;;;5.37;100.00;98445.94;683931;28;2469;-67
2022/11/22 00:56:17;;;;;;;6.47;2.60;;;;;;;5.36;100.00;98443.34;684276;28;1557;-66
2022/11/22 00:56:38;;;;;;;8.40;2.70;;;;;;;5.43;100.00;98439.78;684127;28;1910;-67
2022/11/22 00:56:58;;;;;;;8.20;2.95;;;;;;;5.48;100.00;98442.28;684571;28;1517;-66
2022/11/22 00:57:19;;;;;;;6.83;2.50;;;;;;;5.52;100.00;98449.09;684932;28;1528;-66
2022/11/22 00:57:39;;;;;;;7.00;2.33;;;;;;;5.46;100.00;98450.91;683249;28;4504;-67
2022/11/22 00:58:02;;;;;;;6.43;2.40;;;;;;;5.42;100.00;98444.09;684410;28;1283;-65
2022/11/22 00:58:22;;;;;;;6.50;2.60;;;;;;;5.41;100.00;98447.59;684518;28;1125;-66
2022/11/22 00:58:42;;;;;;;6.27;2.80;;;;;;;5.39;100.00;98446.75;684273;28;2617;-66
2022/11/22 00:59:03;;;;;;;5.80;2.50;;;;;;;5.38;100.00;98446.78;685221;28;952;-66
2022/11/22 00:59:23;;;;;;;5.53;2.33;;;;;;;5.42;100.00;98445.84;685120;28;1056;-66
2022/11/22 00:59:43;;;;;;;6.77;2.60;;;;;;;5.50;100.00;98443.06;684506;28;1119;-67
2022/11/22 01:00:05;;;;;;;6.82;2.50;;;;;;;5.45;100.00;98444.06;685281;28;1158;-66
2022/11/22 01:00:25;;;;;;;7.70;2.60;;;;;;;5.40;100.00;98443.28;684958;28;1095;-66
2022/11/22 01:00:46;;;;;;;6.85;2.40;;;;;;;5.42;100.00;98443.25;684589;28;4380;-66
2022/11/22 01:01:06;;;;;;;6.00;2.37;;;;;;;5.40;100.00;98448.47;685380;28;769;-67
2022/11/22 01:01:26;;;;;;;6.78;2.25;;;;;;;5.38;100.00;98449.38;685636;28;2594;-66
2022/11/22 01:01:47;;;;;;;6.43;2.53;;;;;;;5.38;100.00;98441.59;685124;28;996;-66
2022/11/22 01:02:07;;;;;;;6.60;2.40;;;;;;;5.35;100.00;98442.50;687363;28;1233;-65
2022/11/22 01:02:27;;;;;;;6.50;2.43;;;;;;;5.33;100.00;98439.09;687030;28;800;-66
2022/11/22 01:02:48;;;;;;;6.10;2.60;;;;;;;5.33;100.00;98444.28;686879;28;829;-66
2022/11/22 01:03:11;;;;;;;5.88;2.40;;;;;;;5.29;100.00;98443.47;685839;28;1418;-66
2022/11/22 01:03:31;;;;;;;6.18;2.40;;;;;;;5.26;100.00;98438.38;684548;28;1073;-67
2022/11/22 01:03:52;;;;;;;6.40;2.27;;;;;;;5.32;100.00;98442.56;684273;28;4484;-67
2022/11/22 01:04:12;;;;;;;6.40;2.22;;;;;;;5.35;100.00;98442.50;684354;28;2775;-67
2022/11/22 01:04:33;;;;;;;6.90;2.47;;;;;;;5.32;100.00;98442.56;685127;28;786;-66
2022/11/22 01:04:53;;;;;;;5.70;2.63;;;;;;;5.31;100.00;98440.00;685115;28;1077;-66
2022/11/22 01:05:13;;;;;;;5.93;2.40;;;;;;;5.31;100.00;98450.38;684256;28;1014;-66
2022/11/22 01:05:34;;;;;;;5.80;2.30;;;;;;;5.29;100.00;98442.63;685091;28;1082;-66
2022/11/22 01:05:54;;;;;;;6.30;2.37;;;;;;;5.32;100.00;98447.75;684020;28;1179;-66
2022/11/22 01:06:14;;;;;;;6.90;2.33;;;;;;;5.32;100.00;98445.16;684157;28;1232;-65
2022/11/22 01:06:35;;;;;;;6.07;2.63;;;;;;;5.33;100.00;98446.88;683780;28;2565;-65
2022/11/22 01:06:55;;;;;;;6.93;2.70;;;;;;;5.43;100.00;98450.16;683819;28;4412;-67
2022/11/22 01:07:15;;;;;;;6.40;2.30;;;;;;;5.51;100.00;98445.66;684852;28;1354;-66
2022/11/22 01:07:36;;;;;;;6.57;2.37;;;;;;;5.52;100.00;98451.69;684921;28;1326;-67
2022/11/22 01:07:56;;;;;;;6.23;2.43;;;;;;;5.49;100.00;98457.78;685111;28;1224;-66
2022/11/22 01:08:16;;;;;;;7.23;2.30;;;;;;;5.42;100.00;98451.88;684363;28;1311;-66
2022/11/22 01:08:37;;;;;;;5.93;2.23;;;;;;;5.40;100.00;98456.22;684977;28;1228;-67
2022/11/22 01:08:57;;;;;;;5.40;2.25;;;;;;;5.43;100.00;98458.75;685138;28;1368;-66
2022/11/22 01:09:20;;;;;;;6.00;2.40;;;;;;;5.46;100.00;98453.50;684669;28;2506;-66
2022/11/22 01:09:41;;;;;;;5.22;2.28;;;;;;;5.45;100.00;98457.00;684169;28;4530;-67
2022/11/22 01:10:01;;;;;;;7.07;2.40;;;;;;;5.44;100.00;98447.53;686054;28;1461;-66
2022/11/22 01:10:22;;;;;;;6.63;2.50;;;;;;;5.43;100.00;98452.75;684986;28;1340;-67
2022/11/22 01:10:42;;;;;;;6.50;2.50;;;;;;;5.49;100.00;98452.59;685905;28;1203;-66
2022/11/22 01:11:03;;;;;;;6.18;2.20;;;;;;;5.49;100.00;98443.97;685574;28;1247;-67
2022/11/22 01:11:23;;;;;;;5.70;2.20;;;;;;;5.48;100.00;98455.22;686258;28;1476;-66
2022/11/22 01:11:43;;;;;;;5.27;2.27;;;;;;;5.46;100.00;98447.47;684824;28;1282;-65
2022/11/22 01:12:04;;;;;;;5.20;2.30;;;;;;;5.45;100.00;98445.78;684265;28;2405;-67
2022/11/22 01:12:25;;;;;;;4.90;2.25;;;;;;;5.44;100.00;98447.53;684361;28;1172;-66
2022/11/22 01:12:45;;;;;;;4.43;2.10;;;;;;;5.42;100.00;98441.50;684217;28;4385;-66
2022/11/22 01:13:09;;;;;;;4.32;2.33;;;;;;;5.37;100.00;98448.53;684504;28;1397;-67
2022/11/22 01:13:30;;;;;;;5.85;2.25;;;;;;;5.37;100.00;98451.13;684085;28;1228;-66
2022/11/22 01:13:50;;;;;;;6.85;2.30;;;;;;;5.44;100.00;98457.88;684544;28;1240;-67
2022/11/22 01:14:10;;;;;;;5.43;2.13;;;;;;;5.53;100.00;98451.66;684061;28;1307;-66
2022/11/22 01:14:31;;;;;;;5.07;2.30;;;;;;;5.62;100.00;98454.06;686490;28;2522;-67
2022/11/22 01:14:51;;;;;;;5.95;2.45;;;;;;;5.64;100.00;98456.63;687301;28;790;-66
2022/11/22 01:15:12;;;;;;;5.47;2.25;;;;;;;5.69;100.00;98457.41;687101;28;1404;-67
2022/11/22 01:15:32;;;;;;;6.23;2.10;;;;;;;5.70;100.00;98453.91;686930;28;1283;-67
2022/11/22 01:15:57;;;;;;;5.00;2.13;;;;;;;5.67;100.00;98459.16;685610;28;4387;-66
2022/11/22 01:16:18;;;;;;;6.00;2.40;;;;;;;5.66;100.00;98457.44;685971;28;1141;-67
2022/11/22 01:16:38;;;;;;;6.23;2.30;;;;;;;5.66;100.00;98454.84;683913;28;1981;-67
2022/11/22 01:16:59;;;;;;;5.15;2.38;;;;;;;5.66;100.00;98457.44;684465;28;1061;-67
2022/11/22 01:17:19;;;;;;;5.77;2.23;;;;;;;5.60;100.00;98457.56;684057;28;2434;-67
2022/11/22 01:17:39;;;;;;;5.75;2.10;;;;;;;5.57;100.00;98460.25;684639;28;1343;-66
2022/11/22 01:18:00;;;;;;;7.17;2.20;;;;;;;5.52;100.00;98457.72;685081;28;1300;-67
2022/11/22 01:18:20;;;;;;;6.13;2.17;;;;;;;5.51;100.00;98457.75;684021;28;1125;-65
2022/11/22 01:18:41;;;;;;;5.60;2.20;;;;;;;5.48;100.00;98457.81;683883;28;4362;-67
2022/11/22 01:19:01;;;;;;;6.97;2.20;;;;;;;5.53;100.00;98463.78;684593;28;1357;-67
2022/11/22 01:19:21;;;;;;;6.83;2.23;;;;;;;5.54;100.00;98458.56;684413;28;4085;-66
2022/11/22 01:19:42;;;;;;;5.77;2.20;;;;;;;5.48;100.00;98460.41;684935;28;1449;-66
2022/11/22 01:20:03;;;;;;;5.93;2.20;;;;;;;5.43;100.00;98463.94;684246;28;2426;-68
2022/11/22 01:20:24;;;;;;;5.75;2.15;;;;;;;5.55;100.00;98462.00;684139;28;1346;-66
2022/11/22 01:20:44;;;;;;;5.40;2.10;;;;;;;5.55;100.00;98459.41;685956;28;1465;-66
2022/11/22 01:21:05;;;;;;;4.43;2.10;;;;;;;5.49;100.00;98459.53;685172;28;1609;-67
2022/11/22 01:21:25;;;;;;;5.30;2.22;;;;;;;5.44;100.00;98455.28;682928;28;1215;-67
2022/11/22 01:21:46;;;;;;;6.30;2.50;;;;;;;5.43;100.00;98461.34;682903;28;4377;-66
2022/11/22 01:22:06;;;;;;;7.00;2.47;;;;;;;5.52;100.00;98459.47;682311;28;1212;-67
2022/11/22 01:22:27;;;;;;;5.53;2.30;;;;;;;5.57;100.00;98460.25;679606;29;1441;-66
2022/11/22 01:22:48;;;;;;;4.63;2.40;;;;;;;5.60;100.00;98457.56;681256;29;2848;-67
2022/11/22 01:23:08;;;;;;;4.43;2.08;;;;;;;5.50;100.00;98466.41;681776;28;1365;-67
2022/11/22 01:23:29;;;;;;;5.40;2.25;;;;;;;5.45;100.00;98461.31;682970;28;1232;-67
2022/11/22 01:23:50;;;;;;;7.43;2.40;;;;;;;5.45;100.00;98464.78;684739;28;1311;-66
2022/11/22 01:24:10;;;;;;;7.75;2.15;;;;;;;5.50;100.00;98464.69;684364;28;1287;-66
2022/11/22 01:24:30;;;;;;;7.20;2.20;;;;;;;5.54;100.00;98458.56;684750;28;1220;-66
2022/11/22 01:24:51;;;;;;;6.47;2.40;;;;;;;5.48;100.00;98460.41;684265;28;4389;-67
2022/11/22 01:25:11;;;;;;;6.18;2.33;;;;;;;5.51;100.00;98462.94;683832;28;2426;-67
2022/11/22 01:25:32;;;;;;;4.90;2.20;;;;;;;5.58;100.00;98459.34;684384;28;1236;-67
2022/11/22 01:25:52;;;;;;;6.32;2.20;;;;;;;5.60;100.00;98465.34;684415;28;1393;-67
2022/11/22 01:26:12;;;;;;;6.23;2.10;;;;;;;5.58;100.00;98459.34;684670;28;1306;-66
2022/11/22 01:26:33;;;;;;;6.30;2.10;;;;;;;5.55;100.00;98459.41;684485;28;1228;-66
2022/11/22 01:26:54;;;;;;;6.15;2.20;;;;;;;5.55;100.00;98464.59;684445;28;1201;-66
2022/11/22 01:27:14;;;;;;;5.43;2.10;;;;;;;5.58;100.00;98461.91;684605;28;1303;-67
2022/11/22 01:27:35;;;;;;;5.60;2.15;;;;;;;5.57;100.00;98462.84;684498;28;1350;-66
2022/11/22 01:27:55;;;;;;;6.33;2.40;;;;;;;5.52;100.00;98470.69;684020;28;4295;-67
2022/11/22 01:28:16;;;;;;;5.85;2.05;;;;;;;5.49;100.00;98467.31;684322;28;1303;-67
2022/11/22 01:28:37;;;;;;;5.88;2.17;;;;;;;5.43;100.00;98466.53;684795;28;1295;-66
2022/11/22 01:28:57;;;;;;;7.23;2.20;;;;;;;5.42;100.00;98472.59;682998;28;1250;-67
2022/11/22 01:29:17;;;;;;;6.68;2.20;;;;;;;5.39;100.00;98474.41;684781;28;1251;-67
2022/11/22 01:29:38;;;;;;;6.90;2.27;;;;;;;5.36;100.00;98475.31;684662;28;1394;-67
2022/11/22 01:29:58;;;;;;;6.28;2.55;;;;;;;5.33;100.00;98472.78;684818;28;1228;-66
2022/11/22 01:30:18;;;;;;;6.20;2.50;;;;;;;5.34;100.00;98476.22;684434;28;1278;-67
2022/11/22 01:30:41;;;;;;;7.60;2.30;;;;;;;5.32;100.00;98472.78;683761;28;4405;-67
2022/11/22 01:31:01;;;;;;;5.78;2.30;;;;;;;5.32;100.00;98465.88;684148;28;1494;-67
2022/11/22 01:31:22;;;;;;;4.67;2.20;;;;;;;5.42;100.00;98464.81;684337;28;1495;-67
2022/11/22 01:31:42;;;;;;;5.47;2.30;;;;;;;5.52;100.00;98468.09;684296;28;1320;-66
2022/11/22 01:32:02;;;;;;;5.77;2.30;;;;;;;5.57;100.00;98468.00;685061;28;1390;-66
2022/11/22 01:32:23;;;;;;;5.45;2.53;;;;;;;5.53;100.00;98466.38;684711;28;1255;-67
2022/11/22 01:32:43;;;;;;;6.37;2.40;;;;;;;5.45;100.00;98457.00;684763;28;1613;-67
2022/11/22 01:33:04;;;;;;;7.03;2.30;;;;;;;5.49;100.00;98450.00;684525;28;1526;-67
2022/11/22 01:33:24;;;;;;;6.67;2.20;;;;;;;5.47;100.00;98454.38;683702;28;2431;-67
2022/11/22 01:33:44;;;;;;;5.85;2.53;;;;;;;5.41;100.00;98451.91;684334;28;4923;-66
2022/11/22 01:34:05;;;;;;;5.27;2.10;;;;;;;5.37;100.00;98445.06;684972;28;1227;-66
2022/11/22 01:34:25;;;;;;;6.72;2.45;;;;;;;5.34;100.00;98455.50;684335;28;1207;-66
2022/11/22 01:34:46;;;;;;;5.27;2.10;;;;;;;5.32;100.00;98450.34;684218;28;1228;-66
2022/11/22 01:35:06;;;;;;;5.38;2.00;;;;;;;5.29;100.00;98456.44;684701;28;1572;-66
2022/11/22 01:35:27;;;;;;;5.07;2.03;;;;;;;5.30;100.00;98454.69;683912;28;1315;-66
2022/11/22 01:35:47;;;;;;;6.15;2.25;;;;;;;5.33;100.00;98461.56;684202;28;1311;-66
2022/11/22 01:36:08;;;;;;;7.03;2.60;;;;;;;5.37;100.00;98461.47;683962;28;2442;-67
2022/11/22 01:36:28;;;;;;;6.93;2.40;;;;;;;5.37;100.00;98463.19;684772;28;1288;-66
2022/11/22 01:36:48;;;;;;;5.73;2.30;;;;;;;5.46;100.00;98471.66;683784;28;4298;-66
2022/11/22 01:37:08;;;;;;;5.78;2.28;;;;;;;5.52;100.00;98467.25;685931;28;1270;-66
2022/11/22 01:37:29;;;;;;;6.47;2.13;;;;;;;5.54;100.00;98468.91;685761;28;1279;-66
2022/11/22 01:37:49;;;;;;;6.13;2.20;;;;;;;5.49;100.00;98470.75;685457;28;1182;-67
2022/11/22 01:38:09;;;;;;;6.07;2.35;;;;;;;5.42;100.00;98474.34;682748;28;1436;-67
2022/11/22 01:38:30;;;;;;;6.27;2.43;;;;;;;5.41;100.00;98473.50;683227;28;2511;-66
2022/11/22 01:38:51;;;;;;;6.90;2.27;;;;;;;5.39;100.00;98470.06;682618;28;1275;-66
2022/11/22 01:39:11;;;;;;;6.30;2.20;;;;;;;5.36;100.00;98479.63;684101;28;1291;-65